This is the latest recevied weather packets stored in our database for station/object W0AKY-13. If no packets are shown the sender has not sent any weather packets the latest 10 day(s).
| Time | Temp. | Humidity | Pressure | Rain* | Wind** | Luminosity | Snow |
|---|---|---|---|---|---|---|---|
| 1778136014 | 9.44° C | 62% | 1016.7 hPa | 0 mm | - | 0 W/m² | - |
| 1778135710 | 10° C | 60% | 1016.5 hPa | 0 mm | - | 0 W/m² | - |
| 1778135408 | 10° C | 59% | 1016.7 hPa | 0 mm | - | 0 W/m² | - |
| 1778135104 | 10° C | 58% | 1016.6 hPa | 0 mm | - | 0 W/m² | - |
| 1778134801 | 10° C | 57% | 1016.8 hPa | 0 mm | - | 0 W/m² | - |
| 1778134499 | 10° C | 57% | 1016.8 hPa | 0 mm | - | 0 W/m² | - |
| 1778134197 | 10° C | 55% | 1016.9 hPa | 0 mm | - | 0 W/m² | - |
| 1778133894 | 10° C | 55% | 1016.9 hPa | 0 mm | - | 0 W/m² | - |
| 1778133591 | 10.56° C | 53% | 1017 hPa | 0 mm | - | 0 W/m² | - |
| 1778133286 | 10.56° C | 54% | 1016.9 hPa | 0 mm | - | 0 W/m² | - |
| 1778132983 | 10° C | 52% | 1016.9 hPa | 0 mm | - | 0 W/m² | - |
| 1778132679 | 10° C | 52% | 1016.9 hPa | 0 mm | - | 0 W/m² | - |
| 1778132376 | 9.44° C | 54% | 1017.2 hPa | 0 mm | - | 0 W/m² | - |
| 1778132074 | 8.89° C | 57% | 1016.9 hPa | 0 mm | - | 0 W/m² | - |
| 1778131772 | 8.33° C | 59% | 1017 hPa | 0 mm | - | 0 W/m² | - |
| 1778131469 | 8.33° C | 60% | 1017.1 hPa | 0 mm | - | 0 W/m² | - |
| 1778131166 | 7.78° C | 60% | 1016.9 hPa | 0 mm | - | 0 W/m² | - |
| 1778130864 | 6.11° C | 67% | 1017 hPa | 0 mm | - | 0 W/m² | - |
| 1778130561 | 5.56° C | 74% | 1017.2 hPa | 0 mm | - | 0 W/m² | - |
| 1778130257 | 5° C | 78% | 1017 hPa | 0 mm | - | 0 W/m² | - |
| 1778129954 | 5° C | 79% | 1017.1 hPa | 0 mm | - | 0 W/m² | - |
| 1778129651 | 5° C | 80% | 1016.9 hPa | 0 mm | - | 0 W/m² | - |
| 1778129348 | 5° C | 79% | 1017.1 hPa | 0 mm | - | 0 W/m² | - |
| 1778129045 | 5° C | 79% | 1017.2 hPa | 0 mm | - | 0 W/m² | - |
| 1778128741 | 5° C | 79% | 1017.3 hPa | 0 mm | - | 0 W/m² | - |
* Rain latest hour (hover to see other rain measurements)
** Current wind speed in m/s (hover to see current wind gust speed)